sensor_id;sensor_type;location;lat;lon;timestamp;P1;durP1;ratioP1;P2;durP2;ratioP2
23322;SDS011;11833;52.554;13.554;2023-06-22T00:02:11;9.40;;;8.43;;
23322;SDS011;11833;52.554;13.554;2023-06-22T00:04:37;14.00;;;8.73;;
23322;SDS011;11833;52.554;13.554;2023-06-22T00:07:03;10.82;;;8.98;;
23322;SDS011;11833;52.554;13.554;2023-06-22T00:09:29;9.85;;;8.18;;
23322;SDS011;11833;52.554;13.554;2023-06-22T00:11:56;9.48;;;8.48;;
23322;SDS011;11833;52.554;13.554;2023-06-22T00:14:21;11.57;;;9.02;;
23322;SDS011;11833;52.554;13.554;2023-06-22T00:16:47;9.82;;;8.60;;
23322;SDS011;11833;52.554;13.554;2023-06-22T00:19:14;11.05;;;8.85;;
23322;SDS011;11833;52.554;13.554;2023-06-22T00:21:41;9.43;;;8.35;;
23322;SDS011;11833;52.554;13.554;2023-06-22T00:24:08;9.50;;;8.48;;
23322;SDS011;11833;52.554;13.554;2023-06-22T00:26:33;9.43;;;8.48;;
23322;SDS011;11833;52.554;13.554;2023-06-22T00:28:59;10.93;;;8.20;;
23322;SDS011;11833;52.554;13.554;2023-06-22T00:31:25;11.63;;;8.77;;
23322;SDS011;11833;52.554;13.554;2023-06-22T00:33:50;9.88;;;7.53;;
23322;SDS011;11833;52.554;13.554;2023-06-22T00:36:16;10.05;;;8.68;;
23322;SDS011;11833;52.554;13.554;2023-06-22T00:38:42;9.27;;;8.20;;
23322;SDS011;11833;52.554;13.554;2023-06-22T00:41:08;10.07;;;7.75;;
23322;SDS011;11833;52.554;13.554;2023-06-22T00:43:34;9.88;;;8.88;;
23322;SDS011;11833;52.554;13.554;2023-06-22T00:46:00;10.45;;;9.35;;
23322;SDS011;11833;52.554;13.554;2023-06-22T00:48:26;9.40;;;8.18;;
23322;SDS011;11833;52.554;13.554;2023-06-22T00:50:52;9.68;;;8.13;;
23322;SDS011;11833;52.554;13.554;2023-06-22T00:53:20;9.43;;;8.30;;
23322;SDS011;11833;52.554;13.554;2023-06-22T00:55:46;10.50;;;8.75;;
23322;SDS011;11833;52.554;13.554;2023-06-22T00:58:12;9.35;;;8.27;;
23322;SDS011;11833;52.554;13.554;2023-06-22T01:00:39;9.07;;;8.18;;
23322;SDS011;11833;52.554;13.554;2023-06-22T01:03:06;9.35;;;8.45;;
23322;SDS011;11833;52.554;13.554;2023-06-22T01:05:34;9.68;;;7.90;;
23322;SDS011;11833;52.554;13.554;2023-06-22T01:08:23;11.80;;;8.88;;
23322;SDS011;11833;52.554;13.554;2023-06-22T01:11:22;9.75;;;8.85;;
23322;SDS011;11833;52.554;13.554;2023-06-22T01:14:15;9.02;;;8.13;;
23322;SDS011;11833;52.554;13.554;2023-06-22T01:19:25;9.50;;;7.97;;
23322;SDS011;11833;52.554;13.554;2023-06-22T01:22:15;12.10;;;8.65;;
23322;SDS011;11833;52.554;13.554;2023-06-22T01:27:23;8.45;;;7.30;;
23322;SDS011;11833;52.554;13.554;2023-06-22T01:30:11;9.10;;;8.20;;
23322;SDS011;11833;52.554;13.554;2023-06-22T01:32:39;17.58;;;8.65;;
23322;SDS011;11833;52.554;13.554;2023-06-22T01:35:07;10.15;;;8.45;;
23322;SDS011;11833;52.554;13.554;2023-06-22T01:37:35;11.38;;;8.43;;
23322;SDS011;11833;52.554;13.554;2023-06-22T01:40:03;9.70;;;8.70;;
23322;SDS011;11833;52.554;13.554;2023-06-22T01:42:34;10.00;;;9.00;;
23322;SDS011;11833;52.554;13.554;2023-06-22T01:45:02;8.57;;;7.68;;
23322;SDS011;11833;52.554;13.554;2023-06-22T01:47:29;11.27;;;8.40;;
23322;SDS011;11833;52.554;13.554;2023-06-22T01:49:55;9.05;;;8.10;;
23322;SDS011;11833;52.554;13.554;2023-06-22T01:52:21;8.10;;;7.22;;
23322;SDS011;11833;52.554;13.554;2023-06-22T01:54:47;10.32;;;8.00;;
23322;SDS011;11833;52.554;13.554;2023-06-22T01:57:13;9.20;;;8.32;;
23322;SDS011;11833;52.554;13.554;2023-06-22T01:59:44;9.30;;;8.40;;
23322;SDS011;11833;52.554;13.554;2023-06-22T02:02:41;8.35;;;7.55;;
23322;SDS011;11833;52.554;13.554;2023-06-22T02:05:26;8.95;;;7.13;;
23322;SDS011;11833;52.554;13.554;2023-06-22T02:08:02;20.05;;;9.55;;
23322;SDS011;11833;52.554;13.554;2023-06-22T02:10:57;8.55;;;7.65;;
23322;SDS011;11833;52.554;13.554;2023-06-22T02:13:24;8.20;;;7.35;;
23322;SDS011;11833;52.554;13.554;2023-06-22T02:15:50;8.57;;;7.05;;
23322;SDS011;11833;52.554;13.554;2023-06-22T02:18:17;8.50;;;7.63;;
23322;SDS011;11833;52.554;13.554;2023-06-22T02:20:42;10.02;;;8.48;;
23322;SDS011;11833;52.554;13.554;2023-06-22T02:23:08;9.32;;;8.43;;
23322;SDS011;11833;52.554;13.554;2023-06-22T02:25:34;8.13;;;6.38;;
23322;SDS011;11833;52.554;13.554;2023-06-22T02:28:01;10.27;;;5.75;;
23322;SDS011;11833;52.554;13.554;2023-06-22T02:30:27;7.10;;;6.40;;
23322;SDS011;11833;52.554;13.554;2023-06-22T02:32:53;8.88;;;7.65;;
23322;SDS011;11833;52.554;13.554;2023-06-22T02:35:24;19.27;;;8.40;;
23322;SDS011;11833;52.554;13.554;2023-06-22T02:37:51;14.05;;;8.75;;
23322;SDS011;11833;52.554;13.554;2023-06-22T02:40:17;11.20;;;8.57;;
23322;SDS011;11833;52.554;13.554;2023-06-22T02:42:43;10.75;;;8.77;;
23322;SDS011;11833;52.554;13.554;2023-06-22T02:45:09;8.32;;;7.38;;
23322;SDS011;11833;52.554;13.554;2023-06-22T02:47:35;10.02;;;8.52;;
23322;SDS011;11833;52.554;13.554;2023-06-22T02:50:01;7.68;;;6.93;;
23322;SDS011;11833;52.554;13.554;2023-06-22T02:52:26;9.50;;;6.80;;
23322;SDS011;11833;52.554;13.554;2023-06-22T02:54:52;7.97;;;7.18;;
23322;SDS011;11833;52.554;13.554;2023-06-22T02:57:18;10.43;;;6.60;;
23322;SDS011;11833;52.554;13.554;2023-06-22T02:59:44;9.50;;;6.65;;
23322;SDS011;11833;52.554;13.554;2023-06-22T03:02:09;9.60;;;8.52;;
23322;SDS011;11833;52.554;13.554;2023-06-22T03:04:36;7.63;;;6.85;;
23322;SDS011;11833;52.554;13.554;2023-06-22T03:07:02;10.05;;;8.10;;
23322;SDS011;11833;52.554;13.554;2023-06-22T03:09:28;10.40;;;9.07;;
23322;SDS011;11833;52.554;13.554;2023-06-22T03:11:54;9.88;;;7.50;;
23322;SDS011;11833;52.554;13.554;2023-06-22T03:14:20;8.60;;;7.70;;
23322;SDS011;11833;52.554;13.554;2023-06-22T03:16:46;9.60;;;7.28;;
23322;SDS011;11833;52.554;13.554;2023-06-22T03:19:12;10.10;;;7.38;;
23322;SDS011;11833;52.554;13.554;2023-06-22T03:21:38;9.05;;;6.55;;
23322;SDS011;11833;52.554;13.554;2023-06-22T03:24:05;9.75;;;8.70;;
23322;SDS011;11833;52.554;13.554;2023-06-22T03:26:32;9.82;;;6.72;;
23322;SDS011;11833;52.554;13.554;2023-06-22T03:28:59;6.90;;;6.20;;
23322;SDS011;11833;52.554;13.554;2023-06-22T03:31:25;8.68;;;7.10;;
23322;SDS011;11833;52.554;13.554;2023-06-22T03:33:51;8.13;;;6.55;;
23322;SDS011;11833;52.554;13.554;2023-06-22T03:36:17;8.23;;;7.03;;
23322;SDS011;11833;52.554;13.554;2023-06-22T03:38:47;13.05;;;8.13;;
23322;SDS011;11833;52.554;13.554;2023-06-22T03:41:14;8.45;;;7.60;;
23322;SDS011;11833;52.554;13.554;2023-06-22T03:43:40;11.75;;;7.82;;
23322;SDS011;11833;52.554;13.554;2023-06-22T03:46:06;8.93;;;7.82;;
23322;SDS011;11833;52.554;13.554;2023-06-22T03:48:32;7.93;;;7.10;;
23322;SDS011;11833;52.554;13.554;2023-06-22T03:50:59;8.77;;;7.88;;
23322;SDS011;11833;52.554;13.554;2023-06-22T03:53:25;10.02;;;6.82;;
23322;SDS011;11833;52.554;13.554;2023-06-22T03:55:51;8.40;;;6.80;;
23322;SDS011;11833;52.554;13.554;2023-06-22T03:58:18;8.00;;;6.93;;
23322;SDS011;11833;52.554;13.554;2023-06-22T04:00:45;9.85;;;5.65;;
23322;SDS011;11833;52.554;13.554;2023-06-22T04:03:12;10.18;;;7.35;;
23322;SDS011;11833;52.554;13.554;2023-06-22T04:05:39;11.55;;;7.80;;
23322;SDS011;11833;52.554;13.554;2023-06-22T04:08:05;11.13;;;8.60;;
23322;SDS011;11833;52.554;13.554;2023-06-22T04:10:31;8.85;;;7.95;;
23322;SDS011;11833;52.554;13.554;2023-06-22T04:12:57;9.68;;;6.75;;
23322;SDS011;11833;52.554;13.554;2023-06-22T04:15:23;7.78;;;6.60;;
23322;SDS011;11833;52.554;13.554;2023-06-22T04:17:48;9.43;;;7.82;;
23322;SDS011;11833;52.554;13.554;2023-06-22T04:20:14;8.60;;;6.80;;
23322;SDS011;11833;52.554;13.554;2023-06-22T04:22:40;14.35;;;8.57;;
23322;SDS011;11833;52.554;13.554;2023-06-22T04:25:06;8.90;;;7.05;;
23322;SDS011;11833;52.554;13.554;2023-06-22T04:27:32;10.00;;;7.57;;
23322;SDS011;11833;52.554;13.554;2023-06-22T04:30:05;8.07;;;7.03;;
23322;SDS011;11833;52.554;13.554;2023-06-22T04:32:33;9.27;;;7.43;;
23322;SDS011;11833;52.554;13.554;2023-06-22T04:35:02;7.13;;;5.32;;
23322;SDS011;11833;52.554;13.554;2023-06-22T04:37:32;5.80;;;5.20;;
23322;SDS011;11833;52.554;13.554;2023-06-22T04:40:01;8.65;;;6.13;;
23322;SDS011;11833;52.554;13.554;2023-06-22T04:42:29;8.50;;;5.95;;
23322;SDS011;11833;52.554;13.554;2023-06-22T04:44:55;13.98;;;7.25;;
23322;SDS011;11833;52.554;13.554;2023-06-22T04:47:21;11.18;;;5.88;;
23322;SDS011;11833;52.554;13.554;2023-06-22T04:49:46;11.57;;;7.57;;
23322;SDS011;11833;52.554;13.554;2023-06-22T04:52:13;7.55;;;4.90;;
23322;SDS011;11833;52.554;13.554;2023-06-22T04:54:42;7.40;;;4.78;;
23322;SDS011;11833;52.554;13.554;2023-06-22T04:57:15;6.22;;;5.00;;
23322;SDS011;11833;52.554;13.554;2023-06-22T04:59:41;8.45;;;5.22;;
23322;SDS011;11833;52.554;13.554;2023-06-22T05:02:07;5.65;;;4.90;;
23322;SDS011;11833;52.554;13.554;2023-06-22T05:04:34;6.25;;;4.75;;
23322;SDS011;11833;52.554;13.554;2023-06-22T05:07:08;7.85;;;4.70;;
23322;SDS011;11833;52.554;13.554;2023-06-22T05:09:34;5.80;;;4.88;;
23322;SDS011;11833;52.554;13.554;2023-06-22T05:12:00;5.72;;;4.68;;
23322;SDS011;11833;52.554;13.554;2023-06-22T05:14:28;6.47;;;4.50;;
23322;SDS011;11833;52.554;13.554;2023-06-22T05:16:55;7.38;;;4.50;;
23322;SDS011;11833;52.554;13.554;2023-06-22T05:19:23;6.78;;;4.95;;
23322;SDS011;11833;52.554;13.554;2023-06-22T05:21:50;4.55;;;4.15;;
23322;SDS011;11833;52.554;13.554;2023-06-22T05:24:16;9.00;;;4.68;;
23322;SDS011;11833;52.554;13.554;2023-06-22T05:26:41;9.20;;;5.20;;
23322;SDS011;11833;52.554;13.554;2023-06-22T05:29:07;6.03;;;4.85;;
23322;SDS011;11833;52.554;13.554;2023-06-22T05:31:33;4.85;;;4.35;;
23322;SDS011;11833;52.554;13.554;2023-06-22T05:33:58;5.78;;;4.45;;
23322;SDS011;11833;52.554;13.554;2023-06-22T05:36:25;5.53;;;4.20;;
23322;SDS011;11833;52.554;13.554;2023-06-22T05:38:51;6.65;;;3.75;;
23322;SDS011;11833;52.554;13.554;2023-06-22T05:41:18;8.50;;;4.80;;
23322;SDS011;11833;52.554;13.554;2023-06-22T05:43:44;10.05;;;7.10;;
23322;SDS011;11833;52.554;13.554;2023-06-22T05:46:10;8.05;;;5.68;;
23322;SDS011;11833;52.554;13.554;2023-06-22T05:48:36;8.27;;;5.70;;
23322;SDS011;11833;52.554;13.554;2023-06-22T05:51:02;5.90;;;4.15;;
23322;SDS011;11833;52.554;13.554;2023-06-22T05:53:28;8.23;;;4.88;;
23322;SDS011;11833;52.554;13.554;2023-06-22T05:55:53;5.80;;;4.78;;
23322;SDS011;11833;52.554;13.554;2023-06-22T05:58:19;6.55;;;4.30;;
23322;SDS011;11833;52.554;13.554;2023-06-22T06:00:45;13.68;;;3.65;;
23322;SDS011;11833;52.554;13.554;2023-06-22T06:03:11;4.47;;;3.38;;
23322;SDS011;11833;52.554;13.554;2023-06-22T06:05:37;5.57;;;4.10;;
23322;SDS011;11833;52.554;13.554;2023-06-22T06:08:03;5.53;;;3.92;;
23322;SDS011;11833;52.554;13.554;2023-06-22T06:10:31;4.22;;;3.80;;
23322;SDS011;11833;52.554;13.554;2023-06-22T06:12:58;5.82;;;3.97;;
23322;SDS011;11833;52.554;13.554;2023-06-22T06:15:27;5.93;;;3.30;;
23322;SDS011;11833;52.554;13.554;2023-06-22T06:17:53;5.18;;;4.00;;
23322;SDS011;11833;52.554;13.554;2023-06-22T06:20:23;4.25;;;3.63;;
23322;SDS011;11833;52.554;13.554;2023-06-22T06:22:52;4.90;;;3.17;;
23322;SDS011;11833;52.554;13.554;2023-06-22T06:25:17;4.53;;;3.20;;
23322;SDS011;11833;52.554;13.554;2023-06-22T06:27:45;4.38;;;2.95;;
23322;SDS011;11833;52.554;13.554;2023-06-22T06:30:12;6.95;;;2.63;;
23322;SDS011;11833;52.554;13.554;2023-06-22T06:32:40;3.55;;;2.63;;
23322;SDS011;11833;52.554;13.554;2023-06-22T06:35:08;5.13;;;3.58;;
23322;SDS011;11833;52.554;13.554;2023-06-22T06:37:36;4.57;;;3.00;;
23322;SDS011;11833;52.554;13.554;2023-06-22T06:40:04;3.30;;;2.58;;
23322;SDS011;11833;52.554;13.554;2023-06-22T06:42:35;7.63;;;2.63;;
23322;SDS011;11833;52.554;13.554;2023-06-22T06:45:07;3.60;;;2.78;;
23322;SDS011;11833;52.554;13.554;2023-06-22T06:47:34;7.35;;;3.47;;
23322;SDS011;11833;52.554;13.554;2023-06-22T06:49:59;3.50;;;3.20;;
23322;SDS011;11833;52.554;13.554;2023-06-22T06:52:25;2.95;;;2.60;;
23322;SDS011;11833;52.554;13.554;2023-06-22T06:54:51;3.67;;;3.08;;
23322;SDS011;11833;52.554;13.554;2023-06-22T06:57:17;5.38;;;3.90;;
23322;SDS011;11833;52.554;13.554;2023-06-22T06:59:45;6.70;;;2.45;;
23322;SDS011;11833;52.554;13.554;2023-06-22T07:02:11;3.92;;;2.97;;
23322;SDS011;11833;52.554;13.554;2023-06-22T07:04:37;4.75;;;2.60;;
23322;SDS011;11833;52.554;13.554;2023-06-22T07:07:02;7.03;;;3.97;;
23322;SDS011;11833;52.554;13.554;2023-06-22T07:09:28;5.68;;;3.10;;
23322;SDS011;11833;52.554;13.554;2023-06-22T07:11:54;5.05;;;4.38;;
23322;SDS011;11833;52.554;13.554;2023-06-22T07:14:20;3.60;;;3.08;;
23322;SDS011;11833;52.554;13.554;2023-06-22T07:16:46;4.78;;;2.30;;
23322;SDS011;11833;52.554;13.554;2023-06-22T07:19:12;4.03;;;2.45;;
23322;SDS011;11833;52.554;13.554;2023-06-22T07:21:38;6.05;;;3.05;;
23322;SDS011;11833;52.554;13.554;2023-06-22T07:24:07;3.53;;;2.28;;
23322;SDS011;11833;52.554;13.554;2023-06-22T07:26:33;4.20;;;2.85;;
23322;SDS011;11833;52.554;13.554;2023-06-22T07:28:59;4.10;;;2.75;;
23322;SDS011;11833;52.554;13.554;2023-06-22T07:31:25;3.85;;;2.75;;
23322;SDS011;11833;52.554;13.554;2023-06-22T07:33:51;3.47;;;2.80;;
23322;SDS011;11833;52.554;13.554;2023-06-22T07:36:17;12.40;;;8.68;;
23322;SDS011;11833;52.554;13.554;2023-06-22T07:38:43;4.85;;;1.70;;
23322;SDS011;11833;52.554;13.554;2023-06-22T07:41:09;4.20;;;2.33;;
23322;SDS011;11833;52.554;13.554;2023-06-22T07:43:35;4.53;;;2.83;;
23322;SDS011;11833;52.554;13.554;2023-06-22T07:46:05;6.72;;;4.35;;
23322;SDS011;11833;52.554;13.554;2023-06-22T07:48:31;3.13;;;2.13;;
23322;SDS011;11833;52.554;13.554;2023-06-22T07:50:57;3.08;;;1.88;;
23322;SDS011;11833;52.554;13.554;2023-06-22T07:53:23;4.13;;;1.95;;
23322;SDS011;11833;52.554;13.554;2023-06-22T07:55:49;2.75;;;2.50;;
23322;SDS011;11833;52.554;13.554;2023-06-22T07:58:15;3.67;;;3.13;;
23322;SDS011;11833;52.554;13.554;2023-06-22T08:00:43;6.20;;;3.10;;
23322;SDS011;11833;52.554;13.554;2023-06-22T08:03:09;2.22;;;1.85;;
23322;SDS011;11833;52.554;13.554;2023-06-22T08:05:35;3.63;;;2.58;;
23322;SDS011;11833;52.554;13.554;2023-06-22T08:08:01;3.03;;;2.60;;
23322;SDS011;11833;52.554;13.554;2023-06-22T08:10:26;3.08;;;2.47;;
23322;SDS011;11833;52.554;13.554;2023-06-22T08:12:52;3.25;;;2.03;;
23322;SDS011;11833;52.554;13.554;2023-06-22T08:15:18;3.35;;;2.58;;
23322;SDS011;11833;52.554;13.554;2023-06-22T08:17:44;4.30;;;2.67;;
23322;SDS011;11833;52.554;13.554;2023-06-22T08:20:13;4.22;;;2.20;;
23322;SDS011;11833;52.554;13.554;2023-06-22T08:22:39;3.10;;;1.98;;
23322;SDS011;11833;52.554;13.554;2023-06-22T08:25:06;2.38;;;1.80;;
23322;SDS011;11833;52.554;13.554;2023-06-22T08:27:33;4.60;;;2.08;;
23322;SDS011;11833;52.554;13.554;2023-06-22T08:30:00;3.25;;;2.60;;
23322;SDS011;11833;52.554;13.554;2023-06-22T08:32:27;6.85;;;3.03;;
23322;SDS011;11833;52.554;13.554;2023-06-22T08:34:54;3.30;;;2.00;;
23322;SDS011;11833;52.554;13.554;2023-06-22T08:37:21;7.85;;;2.40;;
23322;SDS011;11833;52.554;13.554;2023-06-22T08:39:56;4.18;;;2.60;;
23322;SDS011;11833;52.554;13.554;2023-06-22T08:42:34;3.08;;;2.38;;
23322;SDS011;11833;52.554;13.554;2023-06-22T08:45:03;8.77;;;4.18;;
23322;SDS011;11833;52.554;13.554;2023-06-22T08:47:29;4.90;;;2.88;;
23322;SDS011;11833;52.554;13.554;2023-06-22T08:49:55;9.98;;;3.00;;
23322;SDS011;11833;52.554;13.554;2023-06-22T08:52:21;4.18;;;2.90;;
23322;SDS011;11833;52.554;13.554;2023-06-22T08:54:48;2.30;;;2.10;;
23322;SDS011;11833;52.554;13.554;2023-06-22T08:57:14;3.05;;;2.30;;
23322;SDS011;11833;52.554;13.554;2023-06-22T08:59:41;5.28;;;2.00;;
23322;SDS011;11833;52.554;13.554;2023-06-22T09:02:07;6.00;;;2.60;;
23322;SDS011;11833;52.554;13.554;2023-06-22T09:04:33;3.60;;;2.30;;
23322;SDS011;11833;52.554;13.554;2023-06-22T09:07:02;4.88;;;2.03;;
23322;SDS011;11833;52.554;13.554;2023-06-22T09:09:29;3.78;;;2.08;;
23322;SDS011;11833;52.554;13.554;2023-06-22T09:11:55;4.38;;;2.35;;
23322;SDS011;11833;52.554;13.554;2023-06-22T09:14:20;3.90;;;2.20;;
23322;SDS011;11833;52.554;13.554;2023-06-22T09:16:46;4.40;;;2.50;;
23322;SDS011;11833;52.554;13.554;2023-06-22T09:19:12;4.20;;;3.45;;
23322;SDS011;11833;52.554;13.554;2023-06-22T09:21:38;2.50;;;2.05;;
23322;SDS011;11833;52.554;13.554;2023-06-22T09:24:03;2.88;;;2.03;;
23322;SDS011;11833;52.554;13.554;2023-06-22T09:26:30;4.35;;;2.28;;
23322;SDS011;11833;52.554;13.554;2023-06-22T09:28:55;4.88;;;2.88;;
23322;SDS011;11833;52.554;13.554;2023-06-22T09:31:22;2.15;;;1.95;;
23322;SDS011;11833;52.554;13.554;2023-06-22T09:33:54;6.00;;;3.65;;
23322;SDS011;11833;52.554;13.554;2023-06-22T09:36:23;5.03;;;2.53;;
23322;SDS011;11833;52.554;13.554;2023-06-22T09:38:49;3.05;;;2.13;;
23322;SDS011;11833;52.554;13.554;2023-06-22T09:41:20;2.72;;;2.17;;
23322;SDS011;11833;52.554;13.554;2023-06-22T09:43:46;2.03;;;1.88;;
23322;SDS011;11833;52.554;13.554;2023-06-22T09:46:14;3.17;;;2.47;;
23322;SDS011;11833;52.554;13.554;2023-06-22T09:48:41;6.45;;;2.05;;
23322;SDS011;11833;52.554;13.554;2023-06-22T09:51:07;5.28;;;1.90;;
23322;SDS011;11833;52.554;13.554;2023-06-22T09:53:32;2.33;;;1.75;;
23322;SDS011;11833;52.554;13.554;2023-06-22T09:55:59;5.07;;;1.70;;
23322;SDS011;11833;52.554;13.554;2023-06-22T09:58:28;2.67;;;2.10;;
23322;SDS011;11833;52.554;13.554;2023-06-22T10:00:54;3.85;;;1.90;;
23322;SDS011;11833;52.554;13.554;2023-06-22T10:03:20;2.72;;;2.03;;
23322;SDS011;11833;52.554;13.554;2023-06-22T10:05:46;4.70;;;2.72;;
23322;SDS011;11833;52.554;13.554;2023-06-22T10:08:12;2.35;;;2.05;;
23322;SDS011;11833;52.554;13.554;2023-06-22T10:10:37;5.72;;;2.75;;
23322;SDS011;11833;52.554;13.554;2023-06-22T10:13:08;3.08;;;1.85;;
23322;SDS011;11833;52.554;13.554;2023-06-22T10:15:37;5.05;;;2.10;;
23322;SDS011;11833;52.554;13.554;2023-06-22T10:18:04;2.55;;;2.20;;
23322;SDS011;11833;52.554;13.554;2023-06-22T10:20:30;2.97;;;2.10;;
23322;SDS011;11833;52.554;13.554;2023-06-22T10:22:55;2.42;;;1.80;;
23322;SDS011;11833;52.554;13.554;2023-06-22T10:25:21;2.03;;;1.83;;
23322;SDS011;11833;52.554;13.554;2023-06-22T10:27:47;6.75;;;1.77;;
23322;SDS011;11833;52.554;13.554;2023-06-22T10:30:13;3.70;;;1.77;;
23322;SDS011;11833;52.554;13.554;2023-06-22T10:32:40;2.17;;;1.98;;
23322;SDS011;11833;52.554;13.554;2023-06-22T10:35:08;4.07;;;1.75;;
23322;SDS011;11833;52.554;13.554;2023-06-22T10:37:40;2.95;;;1.80;;
23322;SDS011;11833;52.554;13.554;2023-06-22T10:40:11;4.35;;;2.13;;
23322;SDS011;11833;52.554;13.554;2023-06-22T10:42:38;2.55;;;1.45;;
23322;SDS011;11833;52.554;13.554;2023-06-22T10:45:04;2.10;;;1.90;;
23322;SDS011;11833;52.554;13.554;2023-06-22T10:47:30;2.53;;;1.80;;
23322;SDS011;11833;52.554;13.554;2023-06-22T10:49:56;2.28;;;1.80;;
23322;SDS011;11833;52.554;13.554;2023-06-22T10:52:22;3.53;;;2.22;;
23322;SDS011;11833;52.554;13.554;2023-06-22T10:54:48;4.20;;;1.88;;
23322;SDS011;11833;52.554;13.554;2023-06-22T10:57:13;5.15;;;3.53;;
23322;SDS011;11833;52.554;13.554;2023-06-22T10:59:39;4.07;;;2.13;;
23322;SDS011;11833;52.554;13.554;2023-06-22T11:02:05;4.47;;;2.20;;
23322;SDS011;11833;52.554;13.554;2023-06-22T11:04:31;3.47;;;2.58;;
23322;SDS011;11833;52.554;13.554;2023-06-22T11:06:56;2.50;;;2.30;;
23322;SDS011;11833;52.554;13.554;2023-06-22T11:09:22;3.78;;;2.70;;
23322;SDS011;11833;52.554;13.554;2023-06-22T11:11:49;2.97;;;2.50;;
23322;SDS011;11833;52.554;13.554;2023-06-22T11:14:18;3.65;;;2.30;;
23322;SDS011;11833;52.554;13.554;2023-06-22T11:16:44;6.45;;;2.70;;
23322;SDS011;11833;52.554;13.554;2023-06-22T11:19:11;5.93;;;3.10;;
23322;SDS011;11833;52.554;13.554;2023-06-22T11:21:37;3.80;;;2.92;;
23322;SDS011;11833;52.554;13.554;2023-06-22T11:24:03;4.60;;;2.33;;
23322;SDS011;11833;52.554;13.554;2023-06-22T11:26:30;2.45;;;2.10;;
23322;SDS011;11833;52.554;13.554;2023-06-22T11:28:56;2.30;;;1.83;;
23322;SDS011;11833;52.554;13.554;2023-06-22T11:31:23;3.75;;;2.83;;
23322;SDS011;11833;52.554;13.554;2023-06-22T11:33:49;2.10;;;1.90;;
23322;SDS011;11833;52.554;13.554;2023-06-22T11:36:16;4.43;;;2.15;;
23322;SDS011;11833;52.554;13.554;2023-06-22T11:38:42;2.15;;;1.90;;
23322;SDS011;11833;52.554;13.554;2023-06-22T11:41:09;3.25;;;2.13;;
23322;SDS011;11833;52.554;13.554;2023-06-22T11:43:35;2.13;;;1.70;;
23322;SDS011;11833;52.554;13.554;2023-06-22T11:46:02;5.68;;;2.45;;
23322;SDS011;11833;52.554;13.554;2023-06-22T11:48:29;2.97;;;2.53;;
23322;SDS011;11833;52.554;13.554;2023-06-22T11:50:56;3.60;;;2.50;;
23322;SDS011;11833;52.554;13.554;2023-06-22T11:53:23;2.97;;;2.38;;
23322;SDS011;11833;52.554;13.554;2023-06-22T11:55:50;2.40;;;2.20;;
23322;SDS011;11833;52.554;13.554;2023-06-22T11:58:16;3.25;;;2.20;;
23322;SDS011;11833;52.554;13.554;2023-06-22T12:00:42;2.47;;;2.28;;
23322;SDS011;11833;52.554;13.554;2023-06-22T12:03:08;1.80;;;1.70;;
23322;SDS011;11833;52.554;13.554;2023-06-22T12:05:34;2.72;;;2.38;;
23322;SDS011;11833;52.554;13.554;2023-06-22T12:08:00;2.90;;;2.30;;
23322;SDS011;11833;52.554;13.554;2023-06-22T12:10:26;2.65;;;2.35;;
23322;SDS011;11833;52.554;13.554;2023-06-22T12:12:55;2.80;;;2.60;;
23322;SDS011;11833;52.554;13.554;2023-06-22T12:15:22;3.03;;;2.08;;
23322;SDS011;11833;52.554;13.554;2023-06-22T12:17:48;5.07;;;1.85;;
23322;SDS011;11833;52.554;13.554;2023-06-22T12:20:14;3.03;;;2.55;;
23322;SDS011;11833;52.554;13.554;2023-06-22T12:22:40;2.88;;;2.33;;
23322;SDS011;11833;52.554;13.554;2023-06-22T12:25:07;3.55;;;2.25;;
23322;SDS011;11833;52.554;13.554;2023-06-22T12:27:34;2.70;;;2.50;;
23322;SDS011;11833;52.554;13.554;2023-06-22T12:30:01;4.28;;;2.30;;
23322;SDS011;11833;52.554;13.554;2023-06-22T12:32:27;2.60;;;2.40;;
23322;SDS011;11833;52.554;13.554;2023-06-22T12:34:53;3.15;;;2.95;;
23322;SDS011;11833;52.554;13.554;2023-06-22T12:37:20;3.78;;;2.80;;
23322;SDS011;11833;52.554;13.554;2023-06-22T12:39:46;2.65;;;2.45;;
23322;SDS011;11833;52.554;13.554;2023-06-22T12:42:12;3.30;;;2.60;;
23322;SDS011;11833;52.554;13.554;2023-06-22T12:44:38;3.75;;;2.47;;
23322;SDS011;11833;52.554;13.554;2023-06-22T12:47:05;2.60;;;2.40;;
23322;SDS011;11833;52.554;13.554;2023-06-22T12:49:31;3.72;;;2.50;;
23322;SDS011;11833;52.554;13.554;2023-06-22T12:51:56;2.85;;;2.65;;
23322;SDS011;11833;52.554;13.554;2023-06-22T12:54:22;2.80;;;2.60;;
23322;SDS011;11833;52.554;13.554;2023-06-22T12:56:49;3.15;;;2.95;;
23322;SDS011;11833;52.554;13.554;2023-06-22T12:59:16;4.18;;;2.78;;
23322;SDS011;11833;52.554;13.554;2023-06-22T13:01:44;3.97;;;2.88;;
23322;SDS011;11833;52.554;13.554;2023-06-22T13:04:11;2.70;;;2.50;;
23322;SDS011;11833;52.554;13.554;2023-06-22T13:06:39;3.22;;;2.92;;
23322;SDS011;11833;52.554;13.554;2023-06-22T13:09:12;3.13;;;2.88;;
23322;SDS011;11833;52.554;13.554;2023-06-22T13:11:42;6.38;;;2.80;;
23322;SDS011;11833;52.554;13.554;2023-06-22T13:14:08;3.00;;;2.80;;
23322;SDS011;11833;52.554;13.554;2023-06-22T13:16:34;3.53;;;2.60;;
23322;SDS011;11833;52.554;13.554;2023-06-22T13:19:00;3.13;;;2.88;;
23322;SDS011;11833;52.554;13.554;2023-06-22T13:21:25;3.22;;;2.85;;
23322;SDS011;11833;52.554;13.554;2023-06-22T13:23:51;3.83;;;2.38;;
23322;SDS011;11833;52.554;13.554;2023-06-22T13:26:17;4.28;;;3.80;;
23322;SDS011;11833;52.554;13.554;2023-06-22T13:28:43;3.65;;;2.72;;
23322;SDS011;11833;52.554;13.554;2023-06-22T13:31:09;3.72;;;3.35;;
23322;SDS011;11833;52.554;13.554;2023-06-22T13:33:35;3.97;;;2.50;;
23322;SDS011;11833;52.554;13.554;2023-06-22T13:36:02;2.97;;;2.67;;
23322;SDS011;11833;52.554;13.554;2023-06-22T13:38:29;3.65;;;2.80;;
23322;SDS011;11833;52.554;13.554;2023-06-22T13:40:56;7.18;;;4.65;;
23322;SDS011;11833;52.554;13.554;2023-06-22T13:43:24;4.20;;;3.80;;
23322;SDS011;11833;52.554;13.554;2023-06-22T13:45:52;4.78;;;2.90;;
23322;SDS011;11833;52.554;13.554;2023-06-22T13:48:17;3.42;;;3.10;;
23322;SDS011;11833;52.554;13.554;2023-06-22T13:50:43;3.00;;;2.70;;
23322;SDS011;11833;52.554;13.554;2023-06-22T13:53:09;3.33;;;2.60;;
23322;SDS011;11833;52.554;13.554;2023-06-22T13:55:35;5.85;;;4.38;;
23322;SDS011;11833;52.554;13.554;2023-06-22T13:58:00;4.35;;;2.70;;
23322;SDS011;11833;52.554;13.554;2023-06-22T14:00:26;6.38;;;3.17;;
23322;SDS011;11833;52.554;13.554;2023-06-22T14:02:53;3.47;;;3.17;;
23322;SDS011;11833;52.554;13.554;2023-06-22T14:05:19;3.38;;;3.03;;
23322;SDS011;11833;52.554;13.554;2023-06-22T14:07:45;3.45;;;3.15;;
23322;SDS011;11833;52.554;13.554;2023-06-22T14:10:11;3.80;;;2.65;;
23322;SDS011;11833;52.554;13.554;2023-06-22T14:12:37;5.05;;;3.53;;
23322;SDS011;11833;52.554;13.554;2023-06-22T14:15:03;3.92;;;3.60;;
23322;SDS011;11833;52.554;13.554;2023-06-22T14:17:30;3.90;;;3.60;;
23322;SDS011;11833;52.554;13.554;2023-06-22T14:19:55;3.70;;;3.30;;
23322;SDS011;11833;52.554;13.554;2023-06-22T14:22:22;2.85;;;2.65;;
23322;SDS011;11833;52.554;13.554;2023-06-22T14:24:48;3.95;;;3.55;;
23322;SDS011;11833;52.554;13.554;2023-06-22T14:27:14;5.50;;;3.42;;
23322;SDS011;11833;52.554;13.554;2023-06-22T14:29:40;3.80;;;3.50;;
23322;SDS011;11833;52.554;13.554;2023-06-22T14:32:07;5.57;;;2.63;;
23322;SDS011;11833;52.554;13.554;2023-06-22T14:34:33;2.78;;;2.50;;
23322;SDS011;11833;52.554;13.554;2023-06-22T14:37:05;2.70;;;2.50;;
23322;SDS011;11833;52.554;13.554;2023-06-22T14:39:34;4.45;;;4.05;;